createdAt,value
2022-09-15T00:00:58.062Z,9.98
2022-09-15T00:03:24.923Z,8.98
2022-09-15T00:05:51.566Z,11.73
2022-09-15T00:08:18.338Z,10.50
2022-09-15T00:10:44.975Z,10.85
2022-09-15T00:13:11.737Z,9.35
2022-09-15T00:15:38.387Z,12.88
2022-09-15T00:18:06.399Z,9.90
2022-09-15T00:20:33.064Z,14.90
2022-09-15T00:22:59.805Z,10.45
2022-09-15T00:25:26.481Z,10.40
2022-09-15T00:27:53.239Z,11.93
2022-09-15T00:30:19.881Z,15.15
2022-09-15T00:32:46.548Z,15.40
2022-09-15T00:35:13.248Z,13.70
2022-09-15T00:37:39.904Z,12.50
2022-09-15T00:40:06.807Z,11.82
2022-09-15T00:42:34.009Z,13.02
2022-09-15T00:45:00.660Z,10.93
2022-09-15T00:47:27.388Z,11.05
2022-09-15T00:49:58.420Z,9.52
2022-09-15T00:52:25.958Z,10.63
2022-09-15T00:54:52.703Z,11.05
2022-09-15T00:57:19.834Z,12.20
2022-09-15T00:59:46.459Z,10.85
2022-09-15T01:02:13.221Z,14.88
2022-09-15T01:04:39.872Z,11.63
2022-09-15T01:07:06.536Z,9.82
2022-09-15T01:09:33.207Z,11.95
2022-09-15T01:11:59.918Z,14.65
2022-09-15T01:14:26.623Z,12.52
2022-09-15T01:16:53.343Z,12.60
2022-09-15T01:19:20.139Z,13.57
2022-09-15T01:21:46.915Z,12.65
2022-09-15T01:24:14.149Z,12.75
2022-09-15T01:26:42.279Z,15.55
2022-09-15T01:29:08.972Z,14.07
2022-09-15T01:31:35.761Z,12.00
2022-09-15T01:34:02.412Z,10.57
2022-09-15T01:36:29.118Z,20.00
2022-09-15T01:38:56.649Z,16.88
2022-09-15T01:41:25.427Z,12.10
2022-09-15T01:43:52.214Z,12.98
2022-09-15T01:46:18.967Z,14.52
2022-09-15T01:48:45.698Z,14.90
2022-09-15T01:51:12.369Z,13.48
2022-09-15T01:53:39.028Z,12.73
2022-09-15T01:56:05.728Z,14.07
2022-09-15T01:58:32.401Z,14.73
2022-09-15T02:00:59.174Z,13.18
2022-09-15T02:03:26.157Z,15.85
2022-09-15T02:05:52.857Z,17.13
2022-09-15T02:08:25.404Z,14.48
2022-09-15T02:10:52.158Z,17.13
2022-09-15T02:13:18.805Z,16.70
2022-09-15T02:15:48.062Z,13.30
2022-09-15T02:18:14.797Z,17.52
2022-09-15T02:20:41.489Z,20.98
2022-09-15T02:23:08.577Z,16.77
2022-09-15T02:25:35.661Z,16.85
2022-09-15T02:28:02.277Z,16.40
2022-09-15T02:30:28.993Z,16.77
2022-09-15T02:32:56.243Z,18.58
2022-09-15T02:35:22.953Z,17.42
2022-09-15T02:37:49.642Z,16.05
2022-09-15T02:40:16.445Z,18.33
2022-09-15T02:42:43.236Z,17.00
2022-09-15T02:45:09.930Z,16.17
2022-09-15T02:47:36.562Z,15.60
2022-09-15T02:50:03.292Z,16.35
2022-09-15T02:52:30.211Z,14.52
2022-09-15T02:54:56.895Z,16.02
2022-09-15T02:57:24.220Z,15.45
2022-09-15T03:00:09.461Z,13.95
2022-09-15T03:02:36.388Z,18.63
2022-09-15T03:05:03.015Z,13.32
2022-09-15T03:07:30.176Z,15.73
2022-09-15T03:09:56.864Z,17.10
2022-09-15T03:12:23.743Z,14.77
2022-09-15T03:14:50.460Z,16.23
2022-09-15T03:17:17.180Z,13.70
2022-09-15T03:19:43.804Z,14.95
2022-09-15T03:22:10.546Z,13.32
2022-09-15T03:24:37.293Z,17.52
2022-09-15T03:27:03.976Z,12.95
2022-09-15T03:29:31.035Z,12.60
2022-09-15T03:31:57.842Z,15.65
2022-09-15T03:34:24.543Z,15.55
2022-09-15T03:36:51.274Z,13.55
2022-09-15T03:39:17.949Z,15.73
2022-09-15T03:41:44.673Z,13.25
2022-09-15T03:44:11.365Z,14.82
2022-09-15T03:46:38.091Z,14.05
2022-09-15T03:49:04.762Z,12.65
2022-09-15T03:51:31.435Z,17.48
2022-09-15T03:53:58.845Z,17.75
2022-09-15T03:56:25.592Z,17.83
2022-09-15T03:58:52.274Z,12.68
2022-09-15T04:01:19.088Z,12.63
2022-09-15T04:03:50.674Z,21.00
2022-09-15T04:06:18.015Z,13.98
2022-09-15T04:08:44.691Z,15.57
2022-09-15T04:11:11.435Z,13.18
2022-09-15T04:13:38.078Z,16.45
2022-09-15T04:16:04.837Z,14.40
2022-09-15T04:18:33.183Z,17.85
2022-09-15T04:20:59.983Z,14.13
2022-09-15T04:23:26.691Z,17.88
2022-09-15T04:25:53.507Z,17.92
2022-09-15T04:28:20.348Z,14.02
2022-09-15T04:30:47.031Z,19.38
2022-09-15T04:33:13.678Z,15.35
2022-09-15T04:35:40.366Z,14.32
2022-09-15T04:38:07.270Z,15.55
2022-09-15T04:40:34.046Z,16.88
2022-09-15T04:43:01.050Z,17.65
2022-09-15T04:45:27.762Z,16.58
2022-09-15T04:47:54.528Z,18.08
2022-09-15T04:50:21.232Z,17.02
2022-09-15T04:52:48.277Z,14.15
2022-09-15T04:55:14.950Z,12.07
2022-09-15T04:57:41.625Z,15.50
2022-09-15T05:00:08.313Z,12.27
2022-09-15T05:02:35.095Z,12.68
2022-09-15T05:05:02.196Z,14.55
2022-09-15T05:07:28.859Z,10.73
2022-09-15T05:09:55.570Z,13.40
2022-09-15T05:12:22.205Z,10.80
2022-09-15T05:14:48.916Z,12.50
2022-09-15T05:17:15.572Z,12.23
2022-09-15T05:19:42.260Z,13.93
2022-09-15T05:22:08.947Z,11.00
2022-09-15T05:24:35.848Z,9.15
2022-09-15T05:27:02.475Z,10.13
2022-09-15T05:29:29.145Z,11.57
2022-09-15T05:31:55.899Z,10.25
2022-09-15T05:34:22.607Z,9.65
2022-09-15T05:36:49.237Z,10.23
2022-09-15T05:39:15.961Z,10.10
2022-09-15T05:41:42.601Z,10.77
2022-09-15T05:44:09.427Z,12.40
2022-09-15T05:46:36.190Z,10.75
2022-09-15T05:49:02.949Z,12.57
2022-09-15T05:51:30.291Z,9.38
2022-09-15T05:53:57.061Z,11.63
2022-09-15T05:56:23.828Z,10.25
2022-09-15T05:58:50.616Z,7.50
2022-09-15T06:01:17.340Z,11.50
2022-09-15T06:03:44.399Z,10.45
2022-09-15T06:06:12.117Z,9.27
2022-09-15T06:08:42.457Z,10.82
2022-09-15T06:11:10.731Z,10.30
2022-09-15T06:13:37.363Z,7.65
2022-09-15T06:16:04.166Z,11.75
2022-09-15T06:18:30.957Z,7.95
2022-09-15T06:20:57.640Z,7.47
2022-09-15T06:23:24.972Z,8.82
2022-09-15T06:25:51.712Z,9.05
2022-09-15T06:28:18.403Z,9.35
2022-09-15T06:30:49.433Z,6.43
2022-09-15T06:33:16.097Z,10.13
2022-09-15T06:35:42.778Z,6.97
2022-09-15T06:38:09.498Z,8.45
2022-09-15T06:40:36.243Z,8.73
2022-09-15T06:43:03.026Z,10.70
2022-09-15T06:45:29.661Z,7.85
2022-09-15T06:48:20.345Z,8.38
2022-09-15T06:50:43.083Z,8.95
2022-09-15T06:53:09.727Z,7.07
2022-09-15T06:55:36.425Z,10.35
2022-09-15T06:58:03.111Z,7.60
2022-09-15T07:00:29.862Z,7.03
2022-09-15T07:02:56.611Z,7.75
2022-09-15T07:05:25.501Z,7.57
2022-09-15T07:07:52.168Z,7.93
2022-09-15T07:10:18.860Z,8.07
2022-09-15T07:12:46.187Z,7.40
2022-09-15T07:15:12.874Z,7.95
2022-09-15T07:17:39.545Z,6.70
2022-09-15T07:20:06.508Z,7.22
2022-09-15T07:22:33.183Z,9.70
2022-09-15T07:24:59.991Z,7.93
2022-09-15T07:27:31.519Z,8.00
2022-09-15T07:29:58.785Z,11.32
2022-09-15T07:32:25.611Z,10.73
2022-09-15T07:34:55.496Z,11.00
2022-09-15T07:37:24.910Z,10.55
2022-09-15T07:39:51.668Z,12.02
2022-09-15T07:42:18.631Z,9.60
2022-09-15T07:44:45.363Z,9.55
2022-09-15T07:47:12.078Z,10.35
2022-09-15T07:49:38.863Z,8.95
2022-09-15T07:52:05.655Z,9.82
2022-09-15T07:54:32.331Z,8.95
2022-09-15T07:56:59.013Z,8.25
2022-09-15T07:59:26.171Z,9.68
2022-09-15T08:01:52.978Z,6.57
2022-09-15T08:04:19.740Z,6.25
2022-09-15T08:06:46.555Z,9.85
2022-09-15T08:09:17.313Z,10.10
2022-09-15T08:11:44.130Z,9.82
2022-09-15T08:14:11.039Z,6.28
2022-09-15T08:16:37.773Z,8.57
2022-09-15T08:19:04.514Z,11.00
2022-09-15T08:21:31.237Z,6.20
2022-09-15T08:23:57.931Z,9.80
2022-09-15T08:26:24.652Z,13.00
2022-09-15T08:28:51.314Z,11.50
2022-09-15T08:31:18.207Z,11.63
2022-09-15T08:33:45.962Z,11.30
2022-09-15T08:36:12.695Z,8.25
2022-09-15T08:38:39.936Z,12.25
2022-09-15T08:41:06.599Z,11.63
2022-09-15T08:43:33.260Z,13.82
2022-09-15T08:45:59.972Z,13.77
2022-09-15T08:48:26.727Z,11.38
2022-09-15T08:50:53.430Z,11.90
2022-09-15T08:53:20.092Z,9.40
2022-09-15T08:55:46.756Z,9.60
2022-09-15T08:58:13.404Z,13.23
2022-09-15T09:00:40.101Z,9.18
2022-09-15T09:03:06.802Z,8.50
2022-09-15T09:05:34.380Z,13.63
2022-09-15T09:08:01.007Z,8.43
2022-09-15T09:10:27.734Z,11.15
2022-09-15T09:12:54.377Z,8.88
2022-09-15T09:15:21.230Z,9.07
2022-09-15T09:17:47.907Z,9.70
2022-09-15T09:20:14.593Z,10.77
2022-09-15T09:22:41.264Z,11.63
2022-09-15T09:25:25.770Z,12.95
2022-09-15T09:27:54.161Z,10.63
2022-09-15T09:30:20.862Z,9.15
2022-09-15T09:32:47.574Z,10.23
2022-09-15T09:35:14.254Z,13.93
2022-09-15T09:37:40.942Z,12.23
2022-09-15T09:40:07.696Z,12.73
2022-09-15T09:42:37.207Z,9.65
2022-09-15T09:45:03.931Z,11.50
2022-09-15T09:47:30.674Z,10.73
2022-09-15T09:49:57.665Z,11.27
2022-09-15T09:52:24.443Z,10.35
2022-09-15T09:54:51.624Z,10.48
2022-09-15T09:57:18.288Z,11.85
2022-09-15T09:59:45.044Z,10.43
2022-09-15T10:02:11.692Z,10.95
2022-09-15T10:04:38.642Z,11.10
2022-09-15T10:07:05.335Z,10.35
2022-09-15T10:09:33.522Z,10.95
2022-09-15T10:12:00.417Z,15.90
2022-09-15T10:14:27.247Z,14.55
2022-09-15T10:16:53.927Z,15.38
2022-09-15T10:19:20.778Z,10.93
2022-09-15T10:21:47.777Z,11.05
2022-09-15T10:24:17.572Z,9.63
2022-09-15T10:26:44.867Z,12.20
2022-09-15T10:29:12.518Z,18.63
2022-09-15T10:31:39.255Z,9.30
2022-09-15T10:34:05.929Z,8.45
2022-09-15T10:36:32.639Z,11.13
2022-09-15T10:38:59.265Z,9.45
2022-09-15T10:41:26.015Z,10.43
2022-09-15T10:43:52.664Z,12.95
2022-09-15T10:46:19.524Z,11.93
2022-09-15T10:48:46.244Z,8.52
2022-09-15T10:51:16.000Z,11.25
2022-09-15T10:53:42.685Z,10.68
2022-09-15T10:56:09.384Z,10.32
2022-09-15T10:58:36.024Z,10.25
2022-09-15T11:01:02.813Z,9.10
2022-09-15T11:03:29.468Z,9.10
2022-09-15T11:05:56.181Z,11.20
2022-09-15T11:08:22.865Z,9.98
2022-09-15T11:10:50.499Z,11.25
2022-09-15T11:13:17.167Z,5.97
2022-09-15T11:15:43.995Z,8.90
2022-09-15T11:18:11.146Z,9.88
2022-09-15T11:20:39.466Z,8.73
2022-09-15T11:23:06.697Z,11.57
2022-09-15T11:25:33.450Z,8.82
2022-09-15T11:28:02.200Z,11.30
2022-09-15T11:30:29.680Z,6.93
2022-09-15T11:32:58.050Z,4.97
2022-09-15T11:35:26.503Z,8.77
2022-09-15T11:37:53.626Z,10.15
2022-09-15T11:40:20.456Z,8.35
2022-09-15T11:42:47.177Z,6.35
2022-09-15T11:45:13.935Z,8.43
2022-09-15T11:47:40.677Z,6.72
2022-09-15T11:50:07.449Z,9.43
2022-09-15T11:52:34.145Z,10.63
2022-09-15T11:55:00.926Z,8.73
2022-09-15T11:57:27.622Z,6.82
2022-09-15T11:59:54.332Z,6.32
2022-09-15T12:02:21.114Z,7.20
2022-09-15T12:04:47.863Z,11.52
2022-09-15T12:07:14.809Z,9.98
2022-09-15T12:09:41.663Z,10.40
2022-09-15T12:12:08.375Z,11.32
2022-09-15T12:14:35.075Z,9.15
2022-09-15T12:17:01.717Z,12.43
2022-09-15T12:19:28.444Z,6.85
2022-09-15T12:21:55.104Z,9.18
2022-09-15T12:24:21.870Z,7.95
2022-09-15T12:26:48.763Z,8.25
2022-09-15T12:29:15.734Z,12.38
2022-09-15T12:31:42.415Z,8.30
2022-09-15T12:34:09.551Z,12.70
2022-09-15T12:36:36.727Z,9.15
2022-09-15T12:39:03.468Z,12.23
2022-09-15T12:41:30.614Z,7.53
2022-09-15T12:43:57.689Z,6.85
2022-09-15T12:46:24.418Z,10.55
2022-09-15T12:48:51.154Z,7.53
2022-09-15T12:51:17.926Z,9.02
2022-09-15T12:53:46.204Z,10.43
2022-09-15T12:56:13.024Z,8.00
2022-09-15T12:58:39.757Z,8.93
2022-09-15T13:01:18.132Z,7.00
2022-09-15T13:03:45.326Z,7.10
2022-09-15T13:06:12.113Z,8.75
2022-09-15T13:08:38.795Z,12.07
2022-09-15T13:11:05.480Z,12.68
2022-09-15T13:13:33.393Z,11.18
2022-09-15T13:16:00.197Z,8.50
2022-09-15T13:18:27.480Z,12.93
2022-09-15T13:20:54.417Z,8.07
2022-09-15T13:23:23.921Z,6.30
2022-09-15T13:25:51.036Z,8.48
2022-09-15T13:28:18.618Z,10.10
2022-09-15T13:30:45.926Z,6.18
2022-09-15T13:33:12.946Z,6.65
2022-09-15T13:35:39.886Z,9.00
2022-09-15T13:38:16.768Z,7.22
2022-09-15T13:40:47.545Z,6.70
2022-09-15T13:43:15.028Z,9.57
2022-09-15T13:45:41.968Z,5.28
2022-09-15T13:48:08.898Z,7.05
2022-09-15T13:50:35.960Z,8.32
2022-09-15T13:53:02.609Z,6.22
2022-09-15T13:55:29.445Z,9.57
2022-09-15T14:00:43.808Z,10.07
2022-09-15T14:03:10.638Z,9.13
2022-09-15T14:05:37.623Z,8.57
2022-09-15T14:08:04.679Z,5.80
2022-09-15T14:10:31.906Z,7.50
2022-09-15T14:12:58.858Z,10.45
2022-09-15T14:15:28.754Z,5.93
2022-09-15T14:17:55.782Z,8.20
2022-09-15T14:20:22.447Z,5.53
2022-09-15T14:22:50.079Z,7.47
2022-09-15T14:25:17.113Z,5.97
2022-09-15T14:27:43.823Z,7.90
2022-09-15T14:30:10.457Z,5.53
2022-09-15T14:32:37.282Z,6.00
2022-09-15T14:35:04.020Z,5.78
2022-09-15T14:37:34.825Z,6.97
2022-09-15T14:40:01.624Z,4.32
2022-09-15T14:42:32.462Z,6.35
2022-09-15T14:47:46.883Z,8.20
2022-09-15T14:50:13.828Z,7.57
2022-09-15T14:52:40.556Z,6.63
2022-09-15T14:55:07.254Z,4.57
2022-09-15T14:57:33.963Z,7.45
2022-09-15T15:00:00.626Z,6.05
2022-09-15T15:02:27.381Z,11.52
2022-09-15T15:04:54.110Z,6.85
2022-09-15T15:07:22.645Z,9.20
2022-09-15T15:09:49.341Z,4.35
2022-09-15T15:12:16.015Z,9.32
2022-09-15T15:14:42.671Z,10.13
2022-09-15T15:17:09.411Z,6.75
2022-09-15T15:19:36.077Z,7.40
2022-09-15T15:22:02.818Z,13.65
2022-09-15T15:24:29.468Z,8.18
2022-09-15T15:26:56.164Z,7.28
2022-09-15T15:29:22.831Z,7.95
2022-09-15T15:31:49.611Z,10.18
2022-09-15T15:34:16.301Z,8.25
2022-09-15T15:36:43.401Z,6.18
2022-09-15T15:39:10.444Z,6.93
2022-09-15T15:41:37.534Z,7.47
2022-09-15T15:44:08.299Z,6.60
2022-09-15T15:46:35.148Z,7.75
2022-09-15T15:49:02.052Z,6.20
2022-09-15T15:51:28.794Z,7.03
2022-09-15T15:53:55.556Z,6.40
2022-09-15T15:56:22.550Z,6.75
2022-09-15T15:58:49.307Z,8.60
2022-09-15T16:01:16.106Z,4.45
2022-09-15T16:03:42.840Z,4.63
2022-09-15T16:06:09.743Z,7.20
2022-09-15T16:08:38.286Z,3.97
2022-09-15T16:11:05.128Z,6.10
2022-09-15T16:13:33.722Z,4.38
2022-09-15T16:16:01.188Z,8.90
2022-09-15T16:18:28.067Z,7.93
2022-09-15T16:20:54.761Z,5.05
2022-09-15T16:23:21.460Z,5.28
2022-09-15T16:25:48.606Z,8.43
2022-09-15T16:28:15.391Z,6.78
2022-09-15T16:30:42.175Z,6.85
2022-09-15T16:33:09.468Z,6.75
2022-09-15T16:35:36.248Z,5.55
2022-09-15T16:38:03.173Z,8.35
2022-09-15T16:40:30.308Z,6.68
2022-09-15T16:42:57.202Z,5.50
2022-09-15T16:45:23.962Z,4.75
2022-09-15T16:47:50.860Z,4.43
2022-09-15T16:50:18.049Z,4.18
2022-09-15T16:52:44.689Z,6.38
2022-09-15T16:55:11.363Z,7.35
2022-09-15T16:57:38.123Z,4.43
2022-09-15T17:00:04.824Z,5.15
2022-09-15T17:02:31.592Z,4.13
2022-09-15T17:04:58.237Z,4.63
2022-09-15T17:07:24.930Z,4.97
2022-09-15T17:09:52.777Z,7.55
2022-09-15T17:12:19.580Z,4.95
2022-09-15T17:14:46.235Z,4.50
2022-09-15T17:17:12.973Z,8.55
2022-09-15T17:19:39.646Z,5.60
2022-09-15T17:22:06.349Z,5.30
2022-09-15T17:24:33.048Z,4.68
2022-09-15T17:26:59.806Z,5.60
2022-09-15T17:29:26.783Z,5.07
2022-09-15T17:31:53.825Z,5.13
2022-09-15T17:34:20.695Z,6.22
2022-09-15T17:36:47.380Z,5.00
2022-09-15T17:39:14.020Z,3.45
2022-09-15T17:41:40.705Z,5.95
2022-09-15T17:44:07.398Z,6.40
2022-09-15T17:46:34.166Z,5.93
2022-09-15T17:49:00.814Z,6.63
2022-09-15T17:51:27.771Z,4.32
2022-09-15T17:53:54.990Z,5.00
2022-09-15T17:56:21.692Z,6.45
2022-09-15T17:58:48.383Z,6.22
2022-09-15T18:01:15.209Z,4.68
2022-09-15T18:03:41.930Z,6.20
2022-09-15T18:06:08.716Z,4.85
2022-09-15T18:08:36.154Z,8.85
2022-09-15T18:11:02.905Z,6.53
2022-09-15T18:13:32.299Z,4.13
2022-09-15T18:15:59.071Z,4.65
2022-09-15T18:18:25.794Z,7.28
2022-09-15T18:20:53.165Z,3.90
2022-09-15T18:23:19.854Z,6.63
2022-09-15T18:25:47.195Z,5.05
2022-09-15T18:28:13.820Z,5.03
2022-09-15T18:30:40.751Z,8.93
2022-09-15T18:33:07.932Z,4.05
2022-09-15T18:35:34.617Z,5.10
2022-09-15T18:38:01.265Z,9.82
2022-09-15T18:40:27.996Z,4.50
2022-09-15T18:42:56.493Z,7.82
2022-09-15T18:45:23.192Z,5.47
2022-09-15T18:47:49.902Z,6.13
2022-09-15T18:50:16.664Z,5.82
2022-09-15T18:52:43.328Z,5.07
2022-09-15T18:55:10.048Z,7.55
2022-09-15T18:57:36.680Z,8.00
2022-09-15T19:00:03.915Z,6.38
2022-09-15T19:02:31.602Z,6.18
2022-09-15T19:04:58.463Z,6.60
2022-09-15T19:07:28.305Z,10.73
2022-09-15T19:09:56.794Z,4.40
2022-09-15T19:12:23.575Z,7.15
2022-09-15T19:14:50.317Z,7.25
2022-09-15T19:17:16.966Z,4.95
2022-09-15T19:19:43.971Z,4.00
2022-09-15T19:22:10.604Z,10.00
2022-09-15T19:24:37.345Z,7.32
2022-09-15T19:27:03.974Z,6.68
2022-09-15T19:29:34.743Z,6.32
2022-09-15T19:32:01.950Z,7.20
2022-09-15T19:34:28.635Z,6.95
2022-09-15T19:36:55.377Z,5.07
2022-09-15T19:39:22.012Z,11.35
2022-09-15T19:41:48.692Z,5.00
2022-09-15T19:44:16.138Z,4.75
2022-09-15T19:46:42.837Z,6.93
2022-09-15T19:49:09.934Z,5.55
2022-09-15T19:51:36.664Z,5.35
2022-09-15T19:54:03.686Z,5.28
2022-09-15T19:56:30.371Z,9.25
2022-09-15T19:58:57.200Z,3.92
2022-09-15T20:01:24.132Z,5.43
2022-09-15T20:06:35.160Z,6.75
2022-09-15T20:09:01.826Z,5.43
2022-09-15T20:11:28.620Z,7.68
2022-09-15T20:13:55.268Z,3.55
2022-09-15T20:16:22.170Z,5.82
2022-09-15T20:18:48.906Z,6.80
2022-09-15T20:21:22.175Z,6.70
2022-09-15T20:24:02.260Z,6.22
2022-09-15T20:26:29.262Z,6.35
2022-09-15T20:28:56.095Z,6.35
2022-09-15T20:31:22.722Z,8.00
2022-09-15T20:33:49.418Z,5.18
2022-09-15T20:36:16.045Z,5.35
2022-09-15T20:38:42.834Z,8.48
2022-09-15T20:41:09.617Z,5.70
2022-09-15T20:43:37.411Z,5.65
2022-09-15T20:46:04.115Z,4.50
2022-09-15T20:48:32.188Z,5.63
2022-09-15T20:50:59.019Z,5.55
2022-09-15T20:53:25.812Z,4.70
2022-09-15T20:55:52.452Z,5.22
2022-09-15T20:58:19.120Z,5.15
2022-09-15T21:00:47.875Z,6.60
2022-09-15T21:03:15.083Z,5.97
2022-09-15T21:05:41.841Z,6.03
2022-09-15T21:08:11.270Z,7.35
2022-09-15T21:10:39.893Z,6.68
2022-09-15T21:13:06.987Z,4.43
2022-09-15T21:15:34.602Z,4.05
2022-09-15T21:18:01.407Z,7.00
2022-09-15T21:20:28.281Z,7.28
2022-09-15T21:22:54.993Z,6.13
2022-09-15T21:25:21.910Z,6.82
2022-09-15T21:27:48.622Z,6.80
2022-09-15T21:30:15.446Z,5.93
2022-09-15T21:32:42.220Z,4.10
2022-09-15T21:35:09.869Z,7.65
2022-09-15T21:37:36.508Z,6.22
2022-09-15T21:40:03.371Z,6.80
2022-09-15T21:42:33.283Z,6.30
2022-09-15T21:45:00.555Z,9.25
2022-09-15T21:47:27.797Z,5.80
2022-09-15T21:49:55.188Z,5.45
2022-09-15T21:52:21.902Z,8.15
2022-09-15T21:54:49.188Z,6.15
2022-09-15T21:57:16.169Z,8.55
2022-09-15T21:59:42.924Z,8.02
2022-09-15T22:02:10.829Z,7.80
2022-09-15T22:04:38.374Z,8.57
2022-09-15T22:07:06.144Z,9.13
2022-09-15T22:09:32.955Z,6.43
2022-09-15T22:11:59.823Z,7.43
2022-09-15T22:14:26.652Z,5.03
2022-09-15T22:16:53.497Z,5.15
2022-09-15T22:19:20.290Z,7.15
2022-09-15T22:21:46.950Z,6.93
2022-09-15T22:24:13.752Z,6.35
2022-09-15T22:26:40.466Z,7.00
2022-09-15T22:29:07.186Z,5.85
2022-09-15T22:31:33.920Z,4.57
2022-09-15T22:34:00.648Z,4.32
2022-09-15T22:36:29.612Z,8.18
2022-09-15T22:38:57.124Z,5.25
2022-09-15T22:41:27.388Z,5.32
2022-09-15T22:43:54.112Z,4.72
2022-09-15T22:46:21.013Z,5.15
2022-09-15T22:48:47.881Z,5.35
2022-09-15T22:51:14.890Z,4.80
2022-09-15T22:53:41.594Z,6.53
2022-09-15T22:56:08.290Z,6.53
2022-09-15T22:58:35.215Z,5.07
2022-09-15T23:01:01.906Z,5.60
2022-09-15T23:03:28.680Z,6.72
2022-09-15T23:05:55.325Z,7.38
2022-09-15T23:08:22.159Z,8.18
2022-09-15T23:10:48.977Z,6.43
2022-09-15T23:13:15.759Z,5.78
2022-09-15T23:15:42.512Z,5.82
2022-09-15T23:18:09.172Z,5.13
2022-09-15T23:20:35.878Z,7.32
2022-09-15T23:23:02.629Z,9.93
2022-09-15T23:25:29.281Z,4.95
2022-09-15T23:27:55.994Z,5.57
2022-09-15T23:30:22.626Z,5.10
2022-09-15T23:32:49.417Z,5.82
2022-09-15T23:35:16.050Z,5.20
2022-09-15T23:37:42.761Z,7.78
2022-09-15T23:40:09.437Z,7.03
2022-09-15T23:42:36.174Z,9.05
2022-09-15T23:45:02.845Z,7.60
2022-09-15T23:47:29.632Z,6.18
2022-09-15T23:49:56.301Z,6.65
2022-09-15T23:52:23.010Z,8.32
2022-09-15T23:54:49.674Z,5.72
2022-09-15T23:57:16.416Z,4.95
2022-09-15T23:59:43.080Z,8.63
